Key West, FL

12:48 AM EDT on August 29, 2015 (GMT -0400)
Key West International | | Change Station
CLOSE
Current Station
Airport
Location: Key West,
Elevation: 0 ft
Nearby Weather Stations

Elev 0 ft 24.56 °N, 81.75 °W | Updated 16 minutes ago

Scattered Clouds
Scattered Clouds
78 °F
Feels Like 78 °F
N
10
Wind Variable Wind from NE

Today
High -- | Low -- °F
--% Chance of Precip.
Yesterday
High -- | Low -- °F
Precip. -- in
7:07 AM 7:48 PM
Waxing Gibbous, 99% visible
Pressure 30.05 in
Visibility 10.0 miles
Clouds Scattered Clouds 5000 ft
Scattered Clouds 7000 ft
Dew Point 76 °F
Humidity 93%
Rainfall 0.00 in
Snow Depth Not available.
UV 0 out of 12
Pollen 5.10 out of 12
Air Quality Not available.
Flu Activity Not available.
SPECI KEYW 290432Z AUTO 05009KT 10SM SCT050 SCT070 26/24 A3005 RMK AO2 LTG DSNT SW AND W RAE31 TSB0355E10 P0002 T02560244
Pressure 30.05 in
Visibility 10.0 miles
Clouds Scattered Clouds 5000 ft
Scattered Clouds 7000 ft
Dew Point 76 °F
Humidity 93%
Rainfall 0.00 in
Snow Depth Not available.
UV 0 out of 12
Pollen 5.10 out of 12
Air Quality Not available.
Flu Activity Not available.
SPECI KEYW 290432Z AUTO 05009KT 10SM SCT050 SCT070 26/24 A3005 RMK AO2 LTG DSNT SW AND W RAE31 TSB0355E10 P0002 T02560244
Nowcast | as of 12:31 am EDT on August 29, 2015

Through 1230 am...isolated showers be found over Keys waters from the nearshore Florida Straits of the Lower Keys...to the near and offshore Florida Straits adjacent to the Dry Tortugas. This activity will produce wind gusts near 30 mph...heavy downpours...and perhaps a few lightning strikes. Rain along the island chain will continue to diminish in intensity and coverage.

×

10-Day Weather Forecast

×

Almanac

Astronomy

Aug. 29, 2015 Rise Set
Actual Time
Civil Twilight
Nautical Twilight
Astronomical Twilight
Moon
Length of Visible Light
Length of Day
Tomorrow will be .
, % of the Moon is Illuminated

Today's Extremes

State Highs State Lows

Community

WunderPhotos

Upload Photos

1,850,614 photos uploaded!

WunderBlogs® & News

Nearby

Air Quality

  Air Quality AQ Index Pollutant
Not available.

Snow Depth

Station Depth Elevation

Earthquake Activity

City Distance Mag. Time & Date
Minimum magnitude displayed is 2.5.

Coastal Water Temperatures

Place Temperature

Stations

Nearby Weather Stations

Station Location Temp. Windchill Dew Point Humidity Wind Precip. Elev Updated Type